sensor_id;sensor_type;location;lat;lon;timestamp;pressure;altitude;pressure_sealevel;temperature;humidity
60465;BME280;46314;52.392;9.758;2023-05-19T00:00:16;102014.94;;;11.44;54.35
60465;BME280;46314;52.392;9.758;2023-05-19T00:02:43;102015.25;;;11.47;54.40
60465;BME280;46314;52.392;9.758;2023-05-19T00:05:10;102008.00;;;11.41;54.54
60465;BME280;46314;52.392;9.758;2023-05-19T00:07:37;102011.16;;;11.91;53.52
60465;BME280;46314;52.392;9.758;2023-05-19T00:10:05;102013.53;;;11.36;54.96
60465;BME280;46314;52.392;9.758;2023-05-19T00:12:32;102007.53;;;10.91;56.27
60465;BME280;46314;52.392;9.758;2023-05-19T00:15:00;102017.94;;;11.27;55.56
60465;BME280;46314;52.392;9.758;2023-05-19T00:17:27;102012.38;;;11.22;55.98
60465;BME280;46314;52.392;9.758;2023-05-19T00:19:53;102010.34;;;10.96;56.57
60465;BME280;46314;52.392;9.758;2023-05-19T00:22:20;102013.22;;;11.27;55.85
60465;BME280;46314;52.392;9.758;2023-05-19T00:24:46;102016.97;;;11.84;54.46
60465;BME280;46314;52.392;9.758;2023-05-19T00:27:13;102012.63;;;11.15;56.10
60465;BME280;46314;52.392;9.758;2023-05-19T00:29:39;102011.84;;;11.25;56.24
60465;BME280;46314;52.392;9.758;2023-05-19T00:32:07;102013.53;;;11.36;55.78
60465;BME280;46314;52.392;9.758;2023-05-19T00:34:34;102013.22;;;11.27;56.25
60465;BME280;46314;52.392;9.758;2023-05-19T00:37:00;102006.88;;;11.37;56.00
60465;BME280;46314;52.392;9.758;2023-05-19T00:39:27;102004.34;;;11.25;56.29
60465;BME280;46314;52.392;9.758;2023-05-19T00:41:53;102003.69;;;11.03;56.82
60465;BME280;46314;52.392;9.758;2023-05-19T00:44:20;102003.88;;;11.54;55.67
60465;BME280;46314;52.392;9.758;2023-05-19T00:46:46;102006.91;;;11.47;55.56
60465;BME280;46314;52.392;9.758;2023-05-19T00:49:14;102000.00;;;11.70;55.30
60465;BME280;46314;52.392;9.758;2023-05-19T00:51:40;101997.50;;;11.74;55.09
60465;BME280;46314;52.392;9.758;2023-05-19T00:54:07;101994.25;;;10.98;57.24
60465;BME280;46314;52.392;9.758;2023-05-19T00:56:34;101995.44;;;11.23;56.86
60465;BME280;46314;52.392;9.758;2023-05-19T00:59:01;102000.53;;;11.47;55.85
60465;BME280;46314;52.392;9.758;2023-05-19T01:01:28;101992.31;;;11.04;57.36
60465;BME280;46314;52.392;9.758;2023-05-19T01:03:55;101991.31;;;11.41;56.22
60465;BME280;46314;52.392;9.758;2023-05-19T01:06:23;101992.44;;;11.35;56.50
60465;BME280;46314;52.392;9.758;2023-05-19T01:08:50;101987.94;;;11.13;57.05
60465;BME280;46314;52.392;9.758;2023-05-19T01:11:17;101990.09;;;11.01;57.70
60465;BME280;46314;52.392;9.758;2023-05-19T01:13:43;101987.31;;;11.06;57.55
60465;BME280;46314;52.392;9.758;2023-05-19T01:16:12;101984.53;;;10.96;57.95
60465;BME280;46314;52.392;9.758;2023-05-19T01:18:51;101984.13;;;10.72;58.46
60465;BME280;46314;52.392;9.758;2023-05-19T01:24:41;101994.44;;;11.86;55.64
60465;BME280;46314;52.392;9.758;2023-05-19T01:27:51;101996.09;;;10.77;58.37
60465;BME280;46314;52.392;9.758;2023-05-19T01:30:25;101996.09;;;11.56;56.33
60465;BME280;46314;52.392;9.758;2023-05-19T01:32:54;101996.59;;;11.43;56.93
60465;BME280;46314;52.392;9.758;2023-05-19T01:35:24;101988.81;;;11.34;57.44
60465;BME280;46314;52.392;9.758;2023-05-19T01:37:53;101989.66;;;11.40;57.01
60465;BME280;46314;52.392;9.758;2023-05-19T01:40:22;101990.69;;;11.08;57.92
60465;BME280;46314;52.392;9.758;2023-05-19T01:42:50;101991.56;;;11.19;57.94
60465;BME280;46314;52.392;9.758;2023-05-19T01:45:18;101993.34;;;10.83;58.41
60465;BME280;46314;52.392;9.758;2023-05-19T01:47:52;101984.28;;;11.13;58.06
60465;BME280;46314;52.392;9.758;2023-05-19T01:50:20;101993.50;;;11.24;57.68
60465;BME280;46314;52.392;9.758;2023-05-19T01:52:47;101998.56;;;11.47;57.16
60465;BME280;46314;52.392;9.758;2023-05-19T01:55:13;101995.66;;;11.11;58.40
60465;BME280;46314;52.392;9.758;2023-05-19T01:57:46;101992.91;;;11.11;57.90
60465;BME280;46314;52.392;9.758;2023-05-19T02:00:22;102001.06;;;11.44;57.36
60465;BME280;46314;52.392;9.758;2023-05-19T02:02:57;102007.78;;;11.79;56.47
60465;BME280;46314;52.392;9.758;2023-05-19T02:05:33;102004.75;;;11.75;56.81
60465;BME280;46314;52.392;9.758;2023-05-19T02:08:10;101999.16;;;11.85;56.17
60465;BME280;46314;52.392;9.758;2023-05-19T02:10:40;101998.88;;;11.82;56.88
60465;BME280;46314;52.392;9.758;2023-05-19T02:13:09;101994.38;;;11.29;58.11
60465;BME280;46314;52.392;9.758;2023-05-19T02:15:39;101996.94;;;11.77;57.26
60465;BME280;46314;52.392;9.758;2023-05-19T02:18:08;101989.53;;;11.04;58.53
60465;BME280;46314;52.392;9.758;2023-05-19T02:20:35;101993.47;;;11.13;58.64
60465;BME280;46314;52.392;9.758;2023-05-19T02:23:02;101990.81;;;11.54;57.35
60465;BME280;46314;52.392;9.758;2023-05-19T02:25:28;101993.59;;;11.65;56.86
60465;BME280;46314;52.392;9.758;2023-05-19T02:27:56;101994.72;;;11.84;56.68
60465;BME280;46314;52.392;9.758;2023-05-19T02:30:24;101999.13;;;11.54;57.79
60465;BME280;46314;52.392;9.758;2023-05-19T02:32:51;101994.91;;;11.26;58.77
60465;BME280;46314;52.392;9.758;2023-05-19T02:35:19;101987.16;;;11.33;58.29
60465;BME280;46314;52.392;9.758;2023-05-19T02:37:45;101993.56;;;11.44;58.79
60465;BME280;46314;52.392;9.758;2023-05-19T02:40:12;101984.63;;;11.27;59.07
60465;BME280;46314;52.392;9.758;2023-05-19T02:42:38;101988.81;;;11.34;58.92
60465;BME280;46314;52.392;9.758;2023-05-19T02:45:06;101986.31;;;11.48;58.85
60465;BME280;46314;52.392;9.758;2023-05-19T02:47:32;101992.41;;;11.30;59.09
60465;BME280;46314;52.392;9.758;2023-05-19T02:50:03;101982.69;;;11.37;58.85
60465;BME280;46314;52.392;9.758;2023-05-19T02:52:31;101982.44;;;11.39;58.74
60465;BME280;46314;52.392;9.758;2023-05-19T02:54:57;101979.34;;;11.25;59.13
60465;BME280;46314;52.392;9.758;2023-05-19T02:57:24;101981.06;;;11.47;58.51
60465;BME280;46314;52.392;9.758;2023-05-19T02:59:50;101969.66;;;11.43;58.41
60465;BME280;46314;52.392;9.758;2023-05-19T03:02:17;101974.66;;;11.46;58.25
60465;BME280;46314;52.392;9.758;2023-05-19T03:04:43;101983.25;;;11.24;59.18
60465;BME280;46314;52.392;9.758;2023-05-19T03:07:10;101983.50;;;11.17;59.36
60465;BME280;46314;52.392;9.758;2023-05-19T03:09:38;101982.44;;;11.44;58.59
60465;BME280;46314;52.392;9.758;2023-05-19T03:12:05;101980.47;;;11.29;59.39
60465;BME280;46314;52.392;9.758;2023-05-19T03:14:33;101981.81;;;11.22;59.40
60465;BME280;46314;52.392;9.758;2023-05-19T03:16:59;101978.09;;;10.80;60.67
60465;BME280;46314;52.392;9.758;2023-05-19T03:19:26;101975.94;;;11.08;60.04
60465;BME280;46314;52.392;9.758;2023-05-19T03:21:53;101973.13;;;10.92;60.78
60465;BME280;46314;52.392;9.758;2023-05-19T03:24:19;101967.91;;;11.01;60.56
60465;BME280;46314;52.392;9.758;2023-05-19T03:26:47;101971.75;;;11.00;60.44
60465;BME280;46314;52.392;9.758;2023-05-19T03:29:13;101970.38;;;11.03;59.77
60465;BME280;46314;52.392;9.758;2023-05-19T03:31:40;101972.91;;;11.14;59.87
60465;BME280;46314;52.392;9.758;2023-05-19T03:34:07;101967.28;;;10.84;60.84
60465;BME280;46314;52.392;9.758;2023-05-19T03:36:33;101965.63;;;10.93;60.15
60465;BME280;46314;52.392;9.758;2023-05-19T03:39:00;101970.59;;;10.86;60.73
60465;BME280;46314;52.392;9.758;2023-05-19T03:41:26;101965.91;;;10.91;60.66
60465;BME280;46314;52.392;9.758;2023-05-19T03:43:54;101966.16;;;10.85;61.34
60465;BME280;46314;52.392;9.758;2023-05-19T03:46:20;101966.16;;;10.85;61.13
60465;BME280;46314;52.392;9.758;2023-05-19T03:48:47;101966.97;;;10.80;61.67
60465;BME280;46314;52.392;9.758;2023-05-19T03:51:14;101977.06;;;11.02;60.81
60465;BME280;46314;52.392;9.758;2023-05-19T03:53:40;101972.25;;;10.87;61.15
60465;BME280;46314;52.392;9.758;2023-05-19T03:56:07;101975.31;;;10.85;61.48
60465;BME280;46314;52.392;9.758;2023-05-19T03:58:33;101976.00;;;11.23;60.18
60465;BME280;46314;52.392;9.758;2023-05-19T04:01:01;101970.66;;;11.06;60.43
60465;BME280;46314;52.392;9.758;2023-05-19T04:03:28;101975.72;;;11.20;60.63
60465;BME280;46314;52.392;9.758;2023-05-19T04:05:54;101976.50;;;11.10;60.51
60465;BME280;46314;52.392;9.758;2023-05-19T04:08:21;101974.88;;;11.19;60.74
60465;BME280;46314;52.392;9.758;2023-05-19T04:10:47;101971.75;;;11.00;61.15
60465;BME280;46314;52.392;9.758;2023-05-19T04:13:14;101977.31;;;11.00;61.33
60465;BME280;46314;52.392;9.758;2023-05-19T04:15:40;101966.69;;;10.87;61.47
60465;BME280;46314;52.392;9.758;2023-05-19T04:18:08;101968.41;;;10.93;61.73
60465;BME280;46314;52.392;9.758;2023-05-19T04:20:35;101975.28;;;10.75;62.32
60465;BME280;46314;52.392;9.758;2023-05-19T04:23:01;101978.19;;;11.11;61.60
60465;BME280;46314;52.392;9.758;2023-05-19T04:25:28;101982.94;;;11.15;60.93
60465;BME280;46314;52.392;9.758;2023-05-19T04:27:54;101986.75;;;11.04;61.56
60465;BME280;46314;52.392;9.758;2023-05-19T04:30:21;101979.97;;;11.53;60.18
60465;BME280;46314;52.392;9.758;2023-05-19T04:32:49;101987.41;;;11.27;60.67
60465;BME280;46314;52.392;9.758;2023-05-19T04:35:17;101985.66;;;11.00;61.22
60465;BME280;46314;52.392;9.758;2023-05-19T04:37:43;101991.81;;;11.12;61.43
60465;BME280;46314;52.392;9.758;2023-05-19T04:40:11;101987.59;;;10.99;61.75
60465;BME280;46314;52.392;9.758;2023-05-19T04:42:37;101990.06;;;10.91;62.36
60465;BME280;46314;52.392;9.758;2023-05-19T04:45:05;101986.25;;;11.17;61.55
60465;BME280;46314;52.392;9.758;2023-05-19T04:47:31;101990.13;;;11.11;62.05
60465;BME280;46314;52.392;9.758;2023-05-19T04:49:58;101995.94;;;11.10;61.61
60465;BME280;46314;52.392;9.758;2023-05-19T04:52:26;101993.16;;;11.10;62.17
60465;BME280;46314;52.392;9.758;2023-05-19T04:54:52;101992.06;;;11.11;62.34
60465;BME280;46314;52.392;9.758;2023-05-19T04:57:18;101992.94;;;11.22;61.46
60465;BME280;46314;52.392;9.758;2023-05-19T04:59:45;101994.09;;;11.46;60.59
60465;BME280;46314;52.392;9.758;2023-05-19T05:02:11;101997.75;;;11.62;60.08
60465;BME280;46314;52.392;9.758;2023-05-19T05:04:38;101999.09;;;11.39;60.98
60465;BME280;46314;52.392;9.758;2023-05-19T05:07:04;101998.06;;;11.86;59.88
60465;BME280;46314;52.392;9.758;2023-05-19T05:09:32;101991.75;;;11.02;61.38
60465;BME280;46314;52.392;9.758;2023-05-19T05:12:00;101995.53;;;11.74;60.32
60465;BME280;46314;52.392;9.758;2023-05-19T05:14:27;101997.78;;;11.78;60.08
60465;BME280;46314;52.392;9.758;2023-05-19T05:16:54;101998.78;;;11.30;61.07
60465;BME280;46314;52.392;9.758;2023-05-19T05:19:21;101992.09;;;11.21;61.41
60465;BME280;46314;52.392;9.758;2023-05-19T05:21:48;101993.63;;;11.90;59.57
60465;BME280;46314;52.392;9.758;2023-05-19T05:24:15;101993.03;;;11.73;59.95
60465;BME280;46314;52.392;9.758;2023-05-19T05:26:44;102000.34;;;11.95;60.19
60465;BME280;46314;52.392;9.758;2023-05-19T05:29:10;101987.53;;;12.09;59.46
60465;BME280;46314;52.392;9.758;2023-05-19T05:31:37;101988.34;;;12.04;59.45
60465;BME280;46314;52.392;9.758;2023-05-19T05:34:03;101986.53;;;12.80;57.56
60465;BME280;46314;52.392;9.758;2023-05-19T05:36:30;101992.44;;;12.68;58.18
60465;BME280;46314;52.392;9.758;2023-05-19T05:38:56;101984.06;;;12.74;58.01
60465;BME280;46314;52.392;9.758;2023-05-19T05:41:23;101984.13;;;12.53;58.45
60465;BME280;46314;52.392;9.758;2023-05-19T05:43:50;101985.81;;;11.67;61.10
60465;BME280;46314;52.392;9.758;2023-05-19T05:46:17;101984.72;;;11.83;61.34
60465;BME280;46314;52.392;9.758;2023-05-19T05:48:44;101986.59;;;11.36;63.06
60465;BME280;46314;52.392;9.758;2023-05-19T05:51:11;101984.13;;;11.55;63.29
60465;BME280;46314;52.392;9.758;2023-05-19T05:53:40;101985.09;;;10.98;64.72
60465;BME280;46314;52.392;9.758;2023-05-19T05:56:08;101991.88;;;11.38;63.34
60465;BME280;46314;52.392;9.758;2023-05-19T05:58:35;101986.69;;;12.08;61.29
60465;BME280;46314;52.392;9.758;2023-05-19T06:01:04;101988.03;;;11.54;62.49
60465;BME280;46314;52.392;9.758;2023-05-19T06:03:31;101991.53;;;11.14;64.22
60465;BME280;46314;52.392;9.758;2023-05-19T06:05:57;101995.00;;;11.83;61.91
60465;BME280;46314;52.392;9.758;2023-05-19T06:08:24;101997.75;;;11.47;62.75
60465;BME280;46314;52.392;9.758;2023-05-19T06:10:50;101999.69;;;11.51;62.75
60465;BME280;46314;52.392;9.758;2023-05-19T06:13:17;101997.75;;;11.62;62.56
60465;BME280;46314;52.392;9.758;2023-05-19T06:15:43;101989.97;;;12.41;60.51
60465;BME280;46314;52.392;9.758;2023-05-19T06:18:11;101995.00;;;12.34;60.24
60465;BME280;46314;52.392;9.758;2023-05-19T06:20:37;101998.22;;;15.61;52.25
60465;BME280;46314;52.392;9.758;2023-05-19T06:23:04;101994.31;;;16.14;49.02
60465;BME280;46314;52.392;9.758;2023-05-19T06:25:30;101990.78;;;13.27;56.35
60465;BME280;46314;52.392;9.758;2023-05-19T06:27:57;101992.19;;;13.30;56.60
60465;BME280;46314;52.392;9.758;2023-05-19T06:30:25;102002.75;;;16.28;48.42
60465;BME280;46314;52.392;9.758;2023-05-19T06:32:52;101997.81;;;19.20;40.92
60465;BME280;46314;52.392;9.758;2023-05-19T06:35:20;101990.38;;;15.82;48.29
60465;BME280;46314;52.392;9.758;2023-05-19T06:37:46;101985.41;;;13.86;54.29
60465;BME280;46314;52.392;9.758;2023-05-19T06:40:13;101992.38;;;15.01;51.24
60465;BME280;46314;52.392;9.758;2023-05-19T06:42:39;101987.78;;;15.10;51.53
60465;BME280;46314;52.392;9.758;2023-05-19T06:45:07;101992.13;;;16.58;47.78
60465;BME280;46314;52.392;9.758;2023-05-19T06:47:34;101991.75;;;15.85;48.75
60465;BME280;46314;52.392;9.758;2023-05-19T06:50:00;101993.56;;;16.41;47.90
60465;BME280;46314;52.392;9.758;2023-05-19T06:52:28;101988.03;;;15.32;50.93
60465;BME280;46314;52.392;9.758;2023-05-19T06:54:55;101984.88;;;14.72;52.36
60465;BME280;46314;52.392;9.758;2023-05-19T06:57:21;101986.16;;;15.04;51.89
60465;BME280;46314;52.392;9.758;2023-05-19T06:59:47;101986.94;;;18.79;43.33
60465;BME280;46314;52.392;9.758;2023-05-19T07:02:14;101982.75;;;19.07;42.52
60465;BME280;46314;52.392;9.758;2023-05-19T07:04:40;101979.94;;;15.50;49.96
60465;BME280;46314;52.392;9.758;2023-05-19T07:07:07;101985.13;;;16.88;47.73
60465;BME280;46314;52.392;9.758;2023-05-19T07:09:35;101987.78;;;15.67;49.68
60465;BME280;46314;52.392;9.758;2023-05-19T07:12:01;101983.56;;;14.64;52.90
60465;BME280;46314;52.392;9.758;2023-05-19T07:14:28;101977.16;;;14.64;53.04
60465;BME280;46314;52.392;9.758;2023-05-19T07:16:54;101988.16;;;16.31;48.39
60465;BME280;46314;52.392;9.758;2023-05-19T07:19:21;101979.94;;;16.21;48.06
60465;BME280;46314;52.392;9.758;2023-05-19T07:21:48;101974.06;;;15.51;50.24
60465;BME280;46314;52.392;9.758;2023-05-19T07:24:14;101982.88;;;18.62;43.19
60465;BME280;46314;52.392;9.758;2023-05-19T07:26:42;101970.78;;;17.54;44.40
60465;BME280;46314;52.392;9.758;2023-05-19T07:29:09;101973.78;;;16.52;47.31
60465;BME280;46314;52.392;9.758;2023-05-19T07:31:35;101971.22;;;19.26;42.38
60465;BME280;46314;52.392;9.758;2023-05-19T07:34:02;101971.44;;;15.74;49.11
60465;BME280;46314;52.392;9.758;2023-05-19T07:36:28;101964.63;;;17.88;44.70
60465;BME280;46314;52.392;9.758;2023-05-19T07:38:55;101967.81;;;16.25;48.21
60465;BME280;46314;52.392;9.758;2023-05-19T07:41:21;101963.31;;;15.59;50.06
60465;BME280;46314;52.392;9.758;2023-05-19T07:43:49;101967.25;;;14.76;52.01
60465;BME280;46314;52.392;9.758;2023-05-19T07:46:16;101967.69;;;18.01;44.20
60465;BME280;46314;52.392;9.758;2023-05-19T07:48:43;101961.13;;;17.10;45.90
60465;BME280;46314;52.392;9.758;2023-05-19T07:51:09;101966.22;;;18.26;43.96
60465;BME280;46314;52.392;9.758;2023-05-19T07:53:36;101958.56;;;15.78;48.49
60465;BME280;46314;52.392;9.758;2023-05-19T07:56:03;101956.13;;;15.33;50.14
60465;BME280;46314;52.392;9.758;2023-05-19T07:58:29;101949.78;;;15.47;50.03
60465;BME280;46314;52.392;9.758;2023-05-19T08:00:57;101957.31;;;15.08;50.15
60465;BME280;46314;52.392;9.758;2023-05-19T08:03:25;101954.44;;;14.94;50.51
60465;BME280;46314;52.392;9.758;2023-05-19T08:05:51;101957.06;;;15.29;50.02
60465;BME280;46314;52.392;9.758;2023-05-19T08:08:18;101952.81;;;15.31;49.97
60465;BME280;46314;52.392;9.758;2023-05-19T08:10:45;101965.31;;;15.72;47.69
60465;BME280;46314;52.392;9.758;2023-05-19T08:13:11;101957.66;;;15.45;47.73
60465;BME280;46314;52.392;9.758;2023-05-19T08:15:38;101952.34;;;15.05;48.31
60465;BME280;46314;52.392;9.758;2023-05-19T08:18:06;101953.16;;;14.63;49.07
60465;BME280;46314;52.392;9.758;2023-05-19T08:20:32;101950.38;;;15.06;48.51
60465;BME280;46314;52.392;9.758;2023-05-19T08:22:59;101952.56;;;15.66;48.09
60465;BME280;46314;52.392;9.758;2023-05-19T08:25:26;101949.66;;;15.76;48.33
60465;BME280;46314;52.392;9.758;2023-05-19T08:27:52;101946.91;;;15.33;48.89
60465;BME280;46314;52.392;9.758;2023-05-19T08:30:19;101948.44;;;15.44;49.04
60465;BME280;46314;52.392;9.758;2023-05-19T08:32:46;101951.38;;;16.52;47.26
60465;BME280;46314;52.392;9.758;2023-05-19T08:35:13;101948.47;;;16.84;46.05
60465;BME280;46314;52.392;9.758;2023-05-19T08:37:40;101939.59;;;16.36;47.84
60465;BME280;46314;52.392;9.758;2023-05-19T08:40:10;101944.66;;;15.54;49.17
60465;BME280;46314;52.392;9.758;2023-05-19T08:42:41;101947.53;;;16.61;47.58
60465;BME280;46314;52.392;9.758;2023-05-19T08:45:08;101935.25;;;16.99;46.05
60465;BME280;46314;52.392;9.758;2023-05-19T08:47:35;101937.97;;;16.49;45.25
60465;BME280;46314;52.392;9.758;2023-05-19T08:50:04;101942.16;;;16.04;46.33
60465;BME280;46314;52.392;9.758;2023-05-19T08:52:41;101929.69;;;16.43;44.87
60465;BME280;46314;52.392;9.758;2023-05-19T08:55:19;101935.72;;;15.90;45.27
60465;BME280;46314;52.392;9.758;2023-05-19T08:57:51;101937.25;;;16.57;44.06
60465;BME280;46314;52.392;9.758;2023-05-19T09:00:18;101922.25;;;17.31;42.80
60465;BME280;46314;52.392;9.758;2023-05-19T09:02:46;101924.50;;;16.51;43.77
60465;BME280;46314;52.392;9.758;2023-05-19T09:05:31;101925.94;;;16.34;44.04
60465;BME280;46314;52.392;9.758;2023-05-19T09:08:00;101923.44;;;16.88;43.52
60465;BME280;46314;52.392;9.758;2023-05-19T09:10:26;101917.88;;;17.25;42.69
60465;BME280;46314;52.392;9.758;2023-05-19T09:12:54;101919.06;;;17.69;42.69
60465;BME280;46314;52.392;9.758;2023-05-19T09:15:26;101915.88;;;17.62;42.76
60465;BME280;46314;52.392;9.758;2023-05-19T09:18:04;101913.81;;;16.66;43.80
60465;BME280;46314;52.392;9.758;2023-05-19T09:20:35;101911.94;;;16.62;44.09
60465;BME280;46314;52.392;9.758;2023-05-19T09:23:04;101911.28;;;18.51;40.93
60465;BME280;46314;52.392;9.758;2023-05-19T09:25:30;101919.47;;;18.79;39.81
60465;BME280;46314;52.392;9.758;2023-05-19T09:27:57;101910.31;;;17.48;41.18
60465;BME280;46314;52.392;9.758;2023-05-19T09:30:25;101913.50;;;16.96;43.39
60465;BME280;46314;52.392;9.758;2023-05-19T09:32:51;101903.56;;;16.48;43.01
60465;BME280;46314;52.392;9.758;2023-05-19T09:35:18;101898.78;;;17.13;42.87
60465;BME280;46314;52.392;9.758;2023-05-19T09:37:45;101897.63;;;17.73;42.02
60465;BME280;46314;52.392;9.758;2023-05-19T09:40:14;101899.47;;;18.31;42.04
60465;BME280;46314;52.392;9.758;2023-05-19T09:42:41;101897.06;;;18.47;40.67
60465;BME280;46314;52.392;9.758;2023-05-19T09:45:08;101894.66;;;17.10;41.72
60465;BME280;46314;52.392;9.758;2023-05-19T09:47:35;101884.88;;;17.44;41.52
60465;BME280;46314;52.392;9.758;2023-05-19T09:50:04;101884.00;;;17.57;41.21
60465;BME280;46314;52.392;9.758;2023-05-19T09:52:34;101881.75;;;18.80;38.81
60465;BME280;46314;52.392;9.758;2023-05-19T09:55:01;101882.53;;;18.14;40.89
60465;BME280;46314;52.392;9.758;2023-05-19T09:57:32;101883.41;;;17.24;40.58
60465;BME280;46314;52.392;9.758;2023-05-19T09:59:59;101880.03;;;18.44;39.83
60465;BME280;46314;52.392;9.758;2023-05-19T10:02:26;101876.19;;;18.40;40.46
60465;BME280;46314;52.392;9.758;2023-05-19T10:04:53;101872.09;;;17.83;40.10
60465;BME280;46314;52.392;9.758;2023-05-19T10:07:21;101875.22;;;17.50;40.35
60465;BME280;46314;52.392;9.758;2023-05-19T10:09:49;101874.34;;;17.72;40.98
60465;BME280;46314;52.392;9.758;2023-05-19T10:12:16;101874.41;;;17.13;41.15
60465;BME280;46314;52.392;9.758;2023-05-19T10:14:45;101869.59;;;17.50;41.35
60465;BME280;46314;52.392;9.758;2023-05-19T10:17:13;101875.69;;;17.30;39.93
60465;BME280;46314;52.392;9.758;2023-05-19T10:19:40;101873.34;;;17.68;39.14
60465;BME280;46314;52.392;9.758;2023-05-19T10:22:08;101869.84;;;17.40;39.65
60465;BME280;46314;52.392;9.758;2023-05-19T10:24:34;101860.44;;;17.45;38.09
60465;BME280;46314;52.392;9.758;2023-05-19T10:27:04;101864.44;;;18.86;36.35
60465;BME280;46314;52.392;9.758;2023-05-19T10:29:35;101850.91;;;19.32;36.87
60465;BME280;46314;52.392;9.758;2023-05-19T10:32:09;101843.97;;;18.95;37.95
60465;BME280;46314;52.392;9.758;2023-05-19T10:34:59;101843.50;;;18.44;38.23
60465;BME280;46314;52.392;9.758;2023-05-19T10:37:40;101849.63;;;18.54;38.85
60465;BME280;46314;52.392;9.758;2023-05-19T10:40:15;101846.06;;;18.89;37.69
60465;BME280;46314;52.392;9.758;2023-05-19T10:42:51;101846.25;;;19.27;37.62
60465;BME280;46314;52.392;9.758;2023-05-19T10:45:23;101845.03;;;17.56;39.95
60465;BME280;46314;52.392;9.758;2023-05-19T10:47:54;101838.19;;;18.33;38.98
60465;BME280;46314;52.392;9.758;2023-05-19T10:50:20;101843.75;;;17.39;40.58
60465;BME280;46314;52.392;9.758;2023-05-19T10:52:52;101837.38;;;18.42;39.04
60465;BME280;46314;52.392;9.758;2023-05-19T10:55:46;101837.25;;;18.64;38.56
60465;BME280;46314;52.392;9.758;2023-05-19T10:58:12;101822.59;;;18.27;39.03
60465;BME280;46314;52.392;9.758;2023-05-19T11:00:39;101823.25;;;19.25;37.82
60465;BME280;46314;52.392;9.758;2023-05-19T11:03:12;101818.50;;;18.33;39.33
60465;BME280;46314;52.392;9.758;2023-05-19T11:05:39;101822.69;;;17.96;39.86
60465;BME280;46314;52.392;9.758;2023-05-19T11:08:06;101821.31;;;18.33;38.41
60465;BME280;46314;52.392;9.758;2023-05-19T11:10:32;101829.66;;;17.53;40.09
60465;BME280;46314;52.392;9.758;2023-05-19T11:13:00;101826.22;;;17.56;39.85
60465;BME280;46314;52.392;9.758;2023-05-19T11:15:33;101837.00;;;17.86;39.32
60465;BME280;46314;52.392;9.758;2023-05-19T11:18:01;101838.44;;;17.60;39.77
60465;BME280;46314;52.392;9.758;2023-05-19T11:20:28;101829.53;;;17.36;39.65
60465;BME280;46314;52.392;9.758;2023-05-19T11:23:05;101828.97;;;17.48;38.33
60465;BME280;46314;52.392;9.758;2023-05-19T11:25:43;101831.84;;;17.56;36.77
60465;BME280;46314;52.392;9.758;2023-05-19T11:28:12;101828.78;;;17.98;36.25
60465;BME280;46314;52.392;9.758;2023-05-19T11:30:40;101830.28;;;18.04;35.38
60465;BME280;46314;52.392;9.758;2023-05-19T11:33:07;101827.88;;;18.20;34.30
60465;BME280;46314;52.392;9.758;2023-05-19T11:35:34;101827.00;;;17.79;35.03
60465;BME280;46314;52.392;9.758;2023-05-19T11:38:02;101821.72;;;18.09;35.22
60465;BME280;46314;52.392;9.758;2023-05-19T11:40:29;101815.63;;;18.73;34.35
60465;BME280;46314;52.392;9.758;2023-05-19T11:42:56;101819.13;;;19.40;34.37
60465;BME280;46314;52.392;9.758;2023-05-19T11:45:25;101808.13;;;18.43;34.76
60465;BME280;46314;52.392;9.758;2023-05-19T11:47:53;101798.81;;;18.91;34.54
60465;BME280;46314;52.392;9.758;2023-05-19T11:50:25;101797.28;;;18.10;35.58
60465;BME280;46314;52.392;9.758;2023-05-19T11:52:52;101813.66;;;17.85;35.91
60465;BME280;46314;52.392;9.758;2023-05-19T11:55:19;101805.28;;;17.31;35.96
60465;BME280;46314;52.392;9.758;2023-05-19T11:57:50;101803.91;;;17.83;35.45
60465;BME280;46314;52.392;9.758;2023-05-19T12:00:36;101802.19;;;17.95;35.19
60465;BME280;46314;52.392;9.758;2023-05-19T12:03:03;101795.63;;;18.09;35.13
60465;BME280;46314;52.392;9.758;2023-05-19T12:05:30;101805.31;;;17.94;35.07
60465;BME280;46314;52.392;9.758;2023-05-19T12:08:02;101805.13;;;17.90;35.00
60465;BME280;46314;52.392;9.758;2023-05-19T12:10:30;101807.19;;;17.76;35.06
60465;BME280;46314;52.392;9.758;2023-05-19T12:12:56;101807.06;;;18.21;34.30
60465;BME280;46314;52.392;9.758;2023-05-19T12:15:25;101800.72;;;18.47;33.71
60465;BME280;46314;52.392;9.758;2023-05-19T12:17:57;101794.84;;;18.17;34.10
60465;BME280;46314;52.392;9.758;2023-05-19T12:20:25;101791.78;;;18.62;33.49
60465;BME280;46314;52.392;9.758;2023-05-19T12:22:53;101792.38;;;18.24;34.04
60465;BME280;46314;52.392;9.758;2023-05-19T12:25:20;101788.50;;;18.03;33.90
60465;BME280;46314;52.392;9.758;2023-05-19T12:27:47;101789.03;;;18.97;32.24
60465;BME280;46314;52.392;9.758;2023-05-19T12:30:15;101781.06;;;19.25;32.50
60465;BME280;46314;52.392;9.758;2023-05-19T12:32:42;101786.53;;;18.87;33.00
60465;BME280;46314;52.392;9.758;2023-05-19T12:35:10;101781.94;;;18.91;32.70
60465;BME280;46314;52.392;9.758;2023-05-19T12:37:40;101781.72;;;19.14;32.07
60465;BME280;46314;52.392;9.758;2023-05-19T12:40:08;101787.56;;;19.08;32.24
60465;BME280;46314;52.392;9.758;2023-05-19T12:42:35;101774.97;;;18.97;33.03
60465;BME280;46314;52.392;9.758;2023-05-19T12:45:03;101769.19;;;19.11;33.61
60465;BME280;46314;52.392;9.758;2023-05-19T12:47:30;101779.78;;;18.97;33.82
60465;BME280;46314;52.392;9.758;2023-05-19T12:50:00;101780.69;;;19.44;33.48
60465;BME280;46314;52.392;9.758;2023-05-19T12:52:29;101775.78;;;19.89;32.57
60465;BME280;46314;52.392;9.758;2023-05-19T12:54:59;101762.88;;;19.88;32.13
60465;BME280;46314;52.392;9.758;2023-05-19T12:57:26;101769.28;;;19.41;32.94